sensor_id;sensor_type;location;lat;lon;timestamp;temperature;humidity
51619;DHT22;38518;53.164;5.430;2023-01-04T00:01:48;7.50;1.00
51619;DHT22;38518;53.164;5.430;2023-01-04T00:04:14;7.40;1.00
51619;DHT22;38518;53.164;5.430;2023-01-04T00:06:39;7.40;1.00
51619;DHT22;38518;53.164;5.430;2023-01-04T00:09:05;7.20;1.00
51619;DHT22;38518;53.164;5.430;2023-01-04T00:11:32;7.40;1.00
51619;DHT22;38518;53.164;5.430;2023-01-04T00:13:58;7.40;1.00
51619;DHT22;38518;53.164;5.430;2023-01-04T00:16:26;7.40;1.00
51619;DHT22;38518;53.164;5.430;2023-01-04T00:18:53;7.50;19.00
51619;DHT22;38518;53.164;5.430;2023-01-04T00:21:25;7.70;32.30
51619;DHT22;38518;53.164;5.430;2023-01-04T00:23:53;7.40;46.40
51619;DHT22;38518;53.164;5.430;2023-01-04T00:26:21;7.40;53.70
51619;DHT22;38518;53.164;5.430;2023-01-04T00:28:51;7.50;74.60
51619;DHT22;38518;53.164;5.430;2023-01-04T00:31:17;7.50;87.40
51619;DHT22;38518;53.164;5.430;2023-01-04T00:33:43;7.50;97.40
51619;DHT22;38518;53.164;5.430;2023-01-04T00:36:13;7.50;99.90
51619;DHT22;38518;53.164;5.430;2023-01-04T00:38:40;7.50;99.90
51619;DHT22;38518;53.164;5.430;2023-01-04T00:41:08;7.50;99.90
51619;DHT22;38518;53.164;5.430;2023-01-04T00:43:34;7.50;99.90
51619;DHT22;38518;53.164;5.430;2023-01-04T00:46:00;7.60;99.90
51619;DHT22;38518;53.164;5.430;2023-01-04T00:48:27;7.50;99.90
51619;DHT22;38518;53.164;5.430;2023-01-04T00:50:53;7.50;99.90
51619;DHT22;38518;53.164;5.430;2023-01-04T00:53:18;7.50;99.90
51619;DHT22;38518;53.164;5.430;2023-01-04T00:55:44;7.50;99.90
51619;DHT22;38518;53.164;5.430;2023-01-04T00:58:10;8.00;99.90
51619;DHT22;38518;53.164;5.430;2023-01-04T01:00:36;7.50;99.90
51619;DHT22;38518;53.164;5.430;2023-01-04T01:03:03;7.50;99.90
51619;DHT22;38518;53.164;5.430;2023-01-04T01:05:29;8.10;99.90
51619;DHT22;38518;53.164;5.430;2023-01-04T01:07:55;7.50;99.90
51619;DHT22;38518;53.164;5.430;2023-01-04T01:10:21;8.10;99.90
51619;DHT22;38518;53.164;5.430;2023-01-04T01:12:46;7.50;99.90
51619;DHT22;38518;53.164;5.430;2023-01-04T01:15:12;7.60;99.90
51619;DHT22;38518;53.164;5.430;2023-01-04T01:17:38;7.50;99.90
51619;DHT22;38518;53.164;5.430;2023-01-04T01:20:04;7.30;99.90
51619;DHT22;38518;53.164;5.430;2023-01-04T01:22:33;7.50;99.90
51619;DHT22;38518;53.164;5.430;2023-01-04T01:24:59;7.50;99.90
51619;DHT22;38518;53.164;5.430;2023-01-04T01:27:25;7.50;99.90
51619;DHT22;38518;53.164;5.430;2023-01-04T01:29:52;7.50;99.90
51619;DHT22;38518;53.164;5.430;2023-01-04T01:32:18;7.60;99.90
51619;DHT22;38518;53.164;5.430;2023-01-04T01:34:44;7.50;99.90
51619;DHT22;38518;53.164;5.430;2023-01-04T01:37:09;7.50;99.90
51619;DHT22;38518;53.164;5.430;2023-01-04T01:39:35;7.50;99.90
51619;DHT22;38518;53.164;5.430;2023-01-04T01:42:01;7.60;99.90
51619;DHT22;38518;53.164;5.430;2023-01-04T01:47:21;7.50;99.90
51619;DHT22;38518;53.164;5.430;2023-01-04T01:49:50;7.50;99.90
51619;DHT22;38518;53.164;5.430;2023-01-04T01:52:21;7.50;1.00
51619;DHT22;38518;53.164;5.430;2023-01-04T01:54:56;7.50;1.00
51619;DHT22;38518;53.164;5.430;2023-01-04T01:57:25;7.60;1.00
51619;DHT22;38518;53.164;5.430;2023-01-04T01:59:55;7.50;1.00
51619;DHT22;38518;53.164;5.430;2023-01-04T02:02:23;6.10;1.00
51619;DHT22;38518;53.164;5.430;2023-01-04T02:04:50;7.60;1.00
51619;DHT22;38518;53.164;5.430;2023-01-04T02:07:23;7.50;16.60
51619;DHT22;38518;53.164;5.430;2023-01-04T02:09:49;7.50;76.00
51619;DHT22;38518;53.164;5.430;2023-01-04T02:12:15;7.60;99.90
51619;DHT22;38518;53.164;5.430;2023-01-04T02:14:43;7.60;99.90
51619;DHT22;38518;53.164;5.430;2023-01-04T02:31:53;7.80;99.90
51619;DHT22;38518;53.164;5.430;2023-01-04T02:42:19;8.90;99.90
51619;DHT22;38518;53.164;5.430;2023-01-04T02:44:57;8.00;99.90
51619;DHT22;38518;53.164;5.430;2023-01-04T02:47:34;8.10;99.90
51619;DHT22;38518;53.164;5.430;2023-01-04T02:50:28;8.10;99.90
51619;DHT22;38518;53.164;5.430;2023-01-04T02:53:20;8.20;99.90
51619;DHT22;38518;53.164;5.430;2023-01-04T03:01:19;8.40;99.90
51619;DHT22;38518;53.164;5.430;2023-01-04T03:04:14;8.50;99.90
51619;DHT22;38518;53.164;5.430;2023-01-04T03:10:06;8.60;99.90
51619;DHT22;38518;53.164;5.430;2023-01-04T03:12:42;8.60;99.90
51619;DHT22;38518;53.164;5.430;2023-01-04T03:15:30;8.70;99.90
51619;DHT22;38518;53.164;5.430;2023-01-04T03:18:02;8.70;99.90
51619;DHT22;38518;53.164;5.430;2023-01-04T03:20:31;8.70;99.90
51619;DHT22;38518;53.164;5.430;2023-01-04T03:22:58;8.80;99.90
51619;DHT22;38518;53.164;5.430;2023-01-04T03:25:49;8.80;99.90
51619;DHT22;38518;53.164;5.430;2023-01-04T03:28:36;8.80;99.90
51619;DHT22;38518;53.164;5.430;2023-01-04T03:31:28;8.80;99.90
51619;DHT22;38518;53.164;5.430;2023-01-04T03:34:14;8.90;99.90
51619;DHT22;38518;53.164;5.430;2023-01-04T03:37:37;8.90;99.90
51619;DHT22;38518;53.164;5.430;2023-01-04T03:40:26;9.00;99.90
51619;DHT22;38518;53.164;5.430;2023-01-04T03:43:19;9.00;99.90
51619;DHT22;38518;53.164;5.430;2023-01-04T03:46:14;9.00;99.90
51619;DHT22;38518;53.164;5.430;2023-01-04T03:49:13;9.10;99.90
51619;DHT22;38518;53.164;5.430;2023-01-04T03:51:44;9.10;99.90
51619;DHT22;38518;53.164;5.430;2023-01-04T03:56:59;9.10;99.90
51619;DHT22;38518;53.164;5.430;2023-01-04T03:59:25;9.10;99.90
51619;DHT22;38518;53.164;5.430;2023-01-04T04:01:51;9.20;99.90
51619;DHT22;38518;53.164;5.430;2023-01-04T04:04:18;9.20;99.90
51619;DHT22;38518;53.164;5.430;2023-01-04T04:07:02;9.20;99.90
51619;DHT22;38518;53.164;5.430;2023-01-04T04:09:47;9.20;99.90
51619;DHT22;38518;53.164;5.430;2023-01-04T04:12:12;9.20;99.90
51619;DHT22;38518;53.164;5.430;2023-01-04T04:14:38;9.20;99.90
51619;DHT22;38518;53.164;5.430;2023-01-04T04:17:04;7.90;99.90
51619;DHT22;38518;53.164;5.430;2023-01-04T04:19:30;9.10;99.90
51619;DHT22;38518;53.164;5.430;2023-01-04T04:21:55;9.20;99.90
51619;DHT22;38518;53.164;5.430;2023-01-04T04:24:24;9.20;99.90
51619;DHT22;38518;53.164;5.430;2023-01-04T04:26:53;9.30;99.90
51619;DHT22;38518;53.164;5.430;2023-01-04T04:29:20;9.30;99.90
51619;DHT22;38518;53.164;5.430;2023-01-04T04:31:46;9.30;99.90
51619;DHT22;38518;53.164;5.430;2023-01-04T04:34:12;9.30;99.90
51619;DHT22;38518;53.164;5.430;2023-01-04T04:36:38;9.30;99.90
51619;DHT22;38518;53.164;5.430;2023-01-04T04:39:04;9.30;99.90
51619;DHT22;38518;53.164;5.430;2023-01-04T04:41:30;9.30;99.90
51619;DHT22;38518;53.164;5.430;2023-01-04T04:44:13;9.20;99.90
51619;DHT22;38518;53.164;5.430;2023-01-04T04:46:40;9.20;99.90
51619;DHT22;38518;53.164;5.430;2023-01-04T04:49:07;9.30;99.90
51619;DHT22;38518;53.164;5.430;2023-01-04T04:51:34;9.20;99.90
51619;DHT22;38518;53.164;5.430;2023-01-04T04:54:00;9.20;99.90
51619;DHT22;38518;53.164;5.430;2023-01-04T04:56:26;9.20;99.90
51619;DHT22;38518;53.164;5.430;2023-01-04T04:58:52;9.20;99.90
51619;DHT22;38518;53.164;5.430;2023-01-04T05:01:18;9.20;99.90
51619;DHT22;38518;53.164;5.430;2023-01-04T05:03:44;9.20;99.90
51619;DHT22;38518;53.164;5.430;2023-01-04T05:06:09;9.20;99.90
51619;DHT22;38518;53.164;5.430;2023-01-04T05:08:35;9.20;99.90
51619;DHT22;38518;53.164;5.430;2023-01-04T05:11:06;9.20;99.90
51619;DHT22;38518;53.164;5.430;2023-01-04T05:13:32;9.20;99.90
51619;DHT22;38518;53.164;5.430;2023-01-04T05:15:58;9.30;99.90
51619;DHT22;38518;53.164;5.430;2023-01-04T05:18:24;9.30;99.90
51619;DHT22;38518;53.164;5.430;2023-01-04T05:20:50;9.40;99.90
51619;DHT22;38518;53.164;5.430;2023-01-04T05:23:17;9.20;99.90
51619;DHT22;38518;53.164;5.430;2023-01-04T05:25:44;8.20;99.90
51619;DHT22;38518;53.164;5.430;2023-01-04T05:28:10;9.20;99.90
51619;DHT22;38518;53.164;5.430;2023-01-04T05:30:36;9.20;99.90
51619;DHT22;38518;53.164;5.430;2023-01-04T05:33:24;9.20;99.90
51619;DHT22;38518;53.164;5.430;2023-01-04T05:35:51;9.20;99.90
51619;DHT22;38518;53.164;5.430;2023-01-04T05:38:17;9.20;99.90
51619;DHT22;38518;53.164;5.430;2023-01-04T05:40:44;9.20;99.90
51619;DHT22;38518;53.164;5.430;2023-01-04T05:43:10;9.30;99.90
51619;DHT22;38518;53.164;5.430;2023-01-04T05:45:37;9.30;99.90
51619;DHT22;38518;53.164;5.430;2023-01-04T05:48:03;9.40;99.90
51619;DHT22;38518;53.164;5.430;2023-01-04T05:50:29;9.40;99.90
51619;DHT22;38518;53.164;5.430;2023-01-04T05:52:54;9.50;99.90
51619;DHT22;38518;53.164;5.430;2023-01-04T05:55:20;9.50;99.90
51619;DHT22;38518;53.164;5.430;2023-01-04T05:57:46;9.50;99.90
51619;DHT22;38518;53.164;5.430;2023-01-04T06:00:13;9.50;99.90
51619;DHT22;38518;53.164;5.430;2023-01-04T06:02:40;9.50;99.90
51619;DHT22;38518;53.164;5.430;2023-01-04T06:05:06;9.50;99.90
51619;DHT22;38518;53.164;5.430;2023-01-04T06:07:32;9.50;99.90
51619;DHT22;38518;53.164;5.430;2023-01-04T06:09:58;9.40;99.90
51619;DHT22;38518;53.164;5.430;2023-01-04T06:12:24;9.40;99.90
51619;DHT22;38518;53.164;5.430;2023-01-04T06:14:50;9.40;99.90
51619;DHT22;38518;53.164;5.430;2023-01-04T06:17:16;9.40;99.90
51619;DHT22;38518;53.164;5.430;2023-01-04T06:19:41;9.40;99.90
51619;DHT22;38518;53.164;5.430;2023-01-04T06:22:07;9.40;99.90
51619;DHT22;38518;53.164;5.430;2023-01-04T06:24:33;9.40;99.90
51619;DHT22;38518;53.164;5.430;2023-01-04T06:26:59;9.60;99.90
51619;DHT22;38518;53.164;5.430;2023-01-04T06:29:25;9.50;99.90
51619;DHT22;38518;53.164;5.430;2023-01-04T06:31:51;9.50;99.90
51619;DHT22;38518;53.164;5.430;2023-01-04T06:34:17;9.50;99.90
51619;DHT22;38518;53.164;5.430;2023-01-04T06:36:43;9.50;99.90
51619;DHT22;38518;53.164;5.430;2023-01-04T06:39:09;9.50;99.90
51619;DHT22;38518;53.164;5.430;2023-01-04T06:41:35;9.50;99.90
51619;DHT22;38518;53.164;5.430;2023-01-04T06:44:02;9.50;99.90
51619;DHT22;38518;53.164;5.430;2023-01-04T06:46:28;9.50;99.90
51619;DHT22;38518;53.164;5.430;2023-01-04T06:48:54;9.50;99.90
51619;DHT22;38518;53.164;5.430;2023-01-04T06:51:20;9.50;99.90
51619;DHT22;38518;53.164;5.430;2023-01-04T06:53:46;9.50;99.90
51619;DHT22;38518;53.164;5.430;2023-01-04T06:56:12;9.40;99.90
51619;DHT22;38518;53.164;5.430;2023-01-04T06:58:38;9.50;99.90
51619;DHT22;38518;53.164;5.430;2023-01-04T07:01:04;9.50;99.90
51619;DHT22;38518;53.164;5.430;2023-01-04T07:03:30;9.50;99.90
51619;DHT22;38518;53.164;5.430;2023-01-04T07:05:56;9.60;99.90
51619;DHT22;38518;53.164;5.430;2023-01-04T07:08:21;11.00;99.90
51619;DHT22;38518;53.164;5.430;2023-01-04T07:10:47;9.50;99.90
51619;DHT22;38518;53.164;5.430;2023-01-04T07:13:13;9.50;99.90
51619;DHT22;38518;53.164;5.430;2023-01-04T07:15:39;9.50;99.90
51619;DHT22;38518;53.164;5.430;2023-01-04T07:18:05;9.50;99.90
51619;DHT22;38518;53.164;5.430;2023-01-04T07:20:31;9.40;99.90
51619;DHT22;38518;53.164;5.430;2023-01-04T07:22:57;9.50;99.90
51619;DHT22;38518;53.164;5.430;2023-01-04T07:25:22;9.50;99.90
51619;DHT22;38518;53.164;5.430;2023-01-04T07:27:52;9.00;99.90
51619;DHT22;38518;53.164;5.430;2023-01-04T07:30:20;9.50;99.90
51619;DHT22;38518;53.164;5.430;2023-01-04T07:32:46;9.50;99.90
51619;DHT22;38518;53.164;5.430;2023-01-04T07:35:12;9.50;99.90
51619;DHT22;38518;53.164;5.430;2023-01-04T07:37:38;9.50;99.90
51619;DHT22;38518;53.164;5.430;2023-01-04T07:40:04;9.50;99.90
51619;DHT22;38518;53.164;5.430;2023-01-04T07:42:30;9.50;99.90
51619;DHT22;38518;53.164;5.430;2023-01-04T07:44:56;9.50;99.90
51619;DHT22;38518;53.164;5.430;2023-01-04T07:47:22;9.50;99.90
51619;DHT22;38518;53.164;5.430;2023-01-04T07:49:48;9.60;99.90
51619;DHT22;38518;53.164;5.430;2023-01-04T07:52:15;9.50;99.90
51619;DHT22;38518;53.164;5.430;2023-01-04T07:54:41;9.60;99.90
51619;DHT22;38518;53.164;5.430;2023-01-04T07:57:07;9.50;99.90
51619;DHT22;38518;53.164;5.430;2023-01-04T07:59:32;9.50;99.90
51619;DHT22;38518;53.164;5.430;2023-01-04T08:01:58;9.50;99.90
51619;DHT22;38518;53.164;5.430;2023-01-04T08:04:24;9.50;99.90
51619;DHT22;38518;53.164;5.430;2023-01-04T08:06:50;9.60;99.90
51619;DHT22;38518;53.164;5.430;2023-01-04T08:09:16;9.60;99.90
51619;DHT22;38518;53.164;5.430;2023-01-04T08:11:43;9.60;99.90
51619;DHT22;38518;53.164;5.430;2023-01-04T08:14:09;9.60;99.90
51619;DHT22;38518;53.164;5.430;2023-01-04T08:16:38;9.50;99.90
51619;DHT22;38518;53.164;5.430;2023-01-04T08:19:07;9.50;99.90
51619;DHT22;38518;53.164;5.430;2023-01-04T08:21:35;9.60;99.90
51619;DHT22;38518;53.164;5.430;2023-01-04T08:24:02;9.50;99.90
51619;DHT22;38518;53.164;5.430;2023-01-04T08:26:28;9.50;99.90
51619;DHT22;38518;53.164;5.430;2023-01-04T08:28:54;9.60;99.90
51619;DHT22;38518;53.164;5.430;2023-01-04T08:31:26;9.60;99.90
51619;DHT22;38518;53.164;5.430;2023-01-04T08:33:53;9.60;99.90
51619;DHT22;38518;53.164;5.430;2023-01-04T08:36:30;9.60;99.90
51619;DHT22;38518;53.164;5.430;2023-01-04T08:38:58;9.60;99.90
51619;DHT22;38518;53.164;5.430;2023-01-04T08:41:24;9.70;99.90
51619;DHT22;38518;53.164;5.430;2023-01-04T08:43:49;9.60;99.90
51619;DHT22;38518;53.164;5.430;2023-01-04T08:46:15;9.60;99.90
51619;DHT22;38518;53.164;5.430;2023-01-04T08:48:41;9.60;99.90
51619;DHT22;38518;53.164;5.430;2023-01-04T08:51:10;9.60;99.90
51619;DHT22;38518;53.164;5.430;2023-01-04T08:53:36;9.60;99.90
51619;DHT22;38518;53.164;5.430;2023-01-04T08:56:02;9.60;99.90
51619;DHT22;38518;53.164;5.430;2023-01-04T08:58:30;9.60;99.90
51619;DHT22;38518;53.164;5.430;2023-01-04T09:01:04;9.60;99.90
51619;DHT22;38518;53.164;5.430;2023-01-04T09:03:30;9.60;99.90
51619;DHT22;38518;53.164;5.430;2023-01-04T09:06:09;9.60;99.90
51619;DHT22;38518;53.164;5.430;2023-01-04T09:08:36;9.60;99.90
51619;DHT22;38518;53.164;5.430;2023-01-04T09:11:03;9.60;99.90
51619;DHT22;38518;53.164;5.430;2023-01-04T09:13:30;9.60;99.90
51619;DHT22;38518;53.164;5.430;2023-01-04T09:15:59;9.60;99.90
51619;DHT22;38518;53.164;5.430;2023-01-04T09:18:25;9.70;99.90
51619;DHT22;38518;53.164;5.430;2023-01-04T09:20:51;9.70;99.90
51619;DHT22;38518;53.164;5.430;2023-01-04T09:23:17;9.70;99.90
51619;DHT22;38518;53.164;5.430;2023-01-04T09:25:42;9.70;99.90
51619;DHT22;38518;53.164;5.430;2023-01-04T09:28:09;8.70;99.90
51619;DHT22;38518;53.164;5.430;2023-01-04T09:30:35;9.80;99.90
51619;DHT22;38518;53.164;5.430;2023-01-04T09:33:01;9.80;99.90
51619;DHT22;38518;53.164;5.430;2023-01-04T09:35:27;9.80;99.90
51619;DHT22;38518;53.164;5.430;2023-01-04T09:37:54;9.90;99.90
51619;DHT22;38518;53.164;5.430;2023-01-04T09:40:23;9.90;99.90
51619;DHT22;38518;53.164;5.430;2023-01-04T09:42:53;9.20;99.90
51619;DHT22;38518;53.164;5.430;2023-01-04T09:45:24;10.00;99.90
51619;DHT22;38518;53.164;5.430;2023-01-04T09:47:57;10.00;99.90
51619;DHT22;38518;53.164;5.430;2023-01-04T09:50:30;10.00;99.90
51619;DHT22;38518;53.164;5.430;2023-01-04T09:53:12;10.10;99.90
51619;DHT22;38518;53.164;5.430;2023-01-04T09:55:47;10.10;99.90
51619;DHT22;38518;53.164;5.430;2023-01-04T09:58:41;10.00;99.90
51619;DHT22;38518;53.164;5.430;2023-01-04T10:01:15;10.10;99.90
51619;DHT22;38518;53.164;5.430;2023-01-04T10:04:04;10.10;99.90
51619;DHT22;38518;53.164;5.430;2023-01-04T10:06:33;10.10;99.90
51619;DHT22;38518;53.164;5.430;2023-01-04T10:09:03;10.10;99.90
51619;DHT22;38518;53.164;5.430;2023-01-04T10:14:54;10.20;99.90
51619;DHT22;38518;53.164;5.430;2023-01-04T10:26:23;10.20;99.90
51619;DHT22;38518;53.164;5.430;2023-01-04T10:34:36;10.20;99.90
51619;DHT22;38518;53.164;5.430;2023-01-04T10:39:42;10.10;99.90
51619;DHT22;38518;53.164;5.430;2023-01-04T10:42:14;10.20;99.90
51619;DHT22;38518;53.164;5.430;2023-01-04T10:44:55;10.20;99.90
51619;DHT22;38518;53.164;5.430;2023-01-04T10:50:02;10.30;99.90
51619;DHT22;38518;53.164;5.430;2023-01-04T10:52:39;10.20;99.90
51619;DHT22;38518;53.164;5.430;2023-01-04T10:55:27;10.20;99.90
51619;DHT22;38518;53.164;5.430;2023-01-04T10:58:03;10.30;99.90
51619;DHT22;38518;53.164;5.430;2023-01-04T11:00:44;10.30;99.90
51619;DHT22;38518;53.164;5.430;2023-01-04T11:03:19;10.30;99.90
51619;DHT22;38518;53.164;5.430;2023-01-04T11:05:53;10.20;99.90
51619;DHT22;38518;53.164;5.430;2023-01-04T11:08:23;10.20;99.90
51619;DHT22;38518;53.164;5.430;2023-01-04T11:10:56;10.20;99.90
51619;DHT22;38518;53.164;5.430;2023-01-04T11:13:24;10.10;99.90
51619;DHT22;38518;53.164;5.430;2023-01-04T11:15:51;10.30;99.90
51619;DHT22;38518;53.164;5.430;2023-01-04T11:18:17;10.30;99.90
51619;DHT22;38518;53.164;5.430;2023-01-04T11:20:43;10.40;99.90
51619;DHT22;38518;53.164;5.430;2023-01-04T11:23:15;10.40;99.90
51619;DHT22;38518;53.164;5.430;2023-01-04T11:26:09;10.40;99.90
51619;DHT22;38518;53.164;5.430;2023-01-04T11:28:54;10.50;99.90
51619;DHT22;38518;53.164;5.430;2023-01-04T11:31:30;10.60;99.90
51619;DHT22;38518;53.164;5.430;2023-01-04T11:34:01;10.60;99.90
51619;DHT22;38518;53.164;5.430;2023-01-04T11:38:56;10.50;99.90
51619;DHT22;38518;53.164;5.430;2023-01-04T11:41:23;10.50;99.90
51619;DHT22;38518;53.164;5.430;2023-01-04T11:44:03;10.50;99.90
51619;DHT22;38518;53.164;5.430;2023-01-04T11:46:30;10.50;99.90
51619;DHT22;38518;53.164;5.430;2023-01-04T11:48:57;10.50;99.90
51619;DHT22;38518;53.164;5.430;2023-01-04T11:53:59;10.40;99.90
51619;DHT22;38518;53.164;5.430;2023-01-04T11:56:27;10.40;99.90
51619;DHT22;38518;53.164;5.430;2023-01-04T11:59:17;10.40;99.90
51619;DHT22;38518;53.164;5.430;2023-01-04T12:01:45;10.30;99.90
51619;DHT22;38518;53.164;5.430;2023-01-04T12:04:21;10.30;99.90
51619;DHT22;38518;53.164;5.430;2023-01-04T12:06:55;10.30;99.90
51619;DHT22;38518;53.164;5.430;2023-01-04T12:09:22;10.30;99.90
51619;DHT22;38518;53.164;5.430;2023-01-04T12:11:54;10.30;99.90
51619;DHT22;38518;53.164;5.430;2023-01-04T12:14:29;10.30;99.90
51619;DHT22;38518;53.164;5.430;2023-01-04T12:17:27;10.30;99.90
51619;DHT22;38518;53.164;5.430;2023-01-04T12:19:55;10.30;99.90
51619;DHT22;38518;53.164;5.430;2023-01-04T12:22:34;10.30;99.90
51619;DHT22;38518;53.164;5.430;2023-01-04T12:25:08;10.20;99.90
51619;DHT22;38518;53.164;5.430;2023-01-04T12:27:48;10.20;99.90
51619;DHT22;38518;53.164;5.430;2023-01-04T12:36:03;10.20;99.90
51619;DHT22;38518;53.164;5.430;2023-01-04T12:55:25;10.30;99.90
51619;DHT22;38518;53.164;5.430;2023-01-04T12:57:51;10.30;99.90
51619;DHT22;38518;53.164;5.430;2023-01-04T13:00:17;10.30;99.90
51619;DHT22;38518;53.164;5.430;2023-01-04T13:03:33;10.30;99.90
51619;DHT22;38518;53.164;5.430;2023-01-04T13:05:35;10.30;99.90
51619;DHT22;38518;53.164;5.430;2023-01-04T13:08:09;10.30;99.90
51619;DHT22;38518;53.164;5.430;2023-01-04T13:10:46;10.30;99.90
51619;DHT22;38518;53.164;5.430;2023-01-04T13:18:40;10.30;99.90
51619;DHT22;38518;53.164;5.430;2023-01-04T13:21:14;10.30;99.90
51619;DHT22;38518;53.164;5.430;2023-01-04T13:23:50;10.20;99.90
51619;DHT22;38518;53.164;5.430;2023-01-04T13:26:46;10.20;99.90
51619;DHT22;38518;53.164;5.430;2023-01-04T13:31:51;10.10;99.90
51619;DHT22;38518;53.164;5.430;2023-01-04T13:37:05;10.10;99.90
51619;DHT22;38518;53.164;5.430;2023-01-04T13:39:37;10.10;99.90
51619;DHT22;38518;53.164;5.430;2023-01-04T13:42:04;10.10;99.90
51619;DHT22;38518;53.164;5.430;2023-01-04T13:44:53;10.10;99.90
51619;DHT22;38518;53.164;5.430;2023-01-04T13:47:22;10.20;99.90
51619;DHT22;38518;53.164;5.430;2023-01-04T13:49:48;10.30;99.90
51619;DHT22;38518;53.164;5.430;2023-01-04T13:52:25;10.30;99.90
51619;DHT22;38518;53.164;5.430;2023-01-04T13:57:37;10.30;99.90
51619;DHT22;38518;53.164;5.430;2023-01-04T14:00:06;10.40;99.90
51619;DHT22;38518;53.164;5.430;2023-01-04T14:02:33;10.40;99.90
51619;DHT22;38518;53.164;5.430;2023-01-04T14:05:00;10.40;99.90
51619;DHT22;38518;53.164;5.430;2023-01-04T14:07:26;10.40;99.90
51619;DHT22;38518;53.164;5.430;2023-01-04T14:09:57;10.30;99.90
51619;DHT22;38518;53.164;5.430;2023-01-04T14:12:26;9.90;99.90
51619;DHT22;38518;53.164;5.430;2023-01-04T14:30:45;10.00;1.00
51619;DHT22;38518;53.164;5.430;2023-01-04T14:33:19;10.00;1.00
51619;DHT22;38518;53.164;5.430;2023-01-04T14:46:28;10.00;1.00
51619;DHT22;38518;53.164;5.430;2023-01-04T14:48:54;10.00;1.00
51619;DHT22;38518;53.164;5.430;2023-01-04T14:51:30;9.90;1.00
51619;DHT22;38518;53.164;5.430;2023-01-04T14:53:57;10.00;1.00
51619;DHT22;38518;53.164;5.430;2023-01-04T14:56:22;10.00;1.00
51619;DHT22;38518;53.164;5.430;2023-01-04T14:58:48;10.00;1.00
51619;DHT22;38518;53.164;5.430;2023-01-04T15:01:14;9.80;1.00
51619;DHT22;38518;53.164;5.430;2023-01-04T15:03:39;10.00;1.00
51619;DHT22;38518;53.164;5.430;2023-01-04T15:06:06;10.00;1.00
51619;DHT22;38518;53.164;5.430;2023-01-04T15:08:32;10.00;1.00
51619;DHT22;38518;53.164;5.430;2023-01-04T15:10:58;10.00;1.00
51619;DHT22;38518;53.164;5.430;2023-01-04T15:13:24;10.00;1.00
51619;DHT22;38518;53.164;5.430;2023-01-04T15:15:50;10.00;1.00
51619;DHT22;38518;53.164;5.430;2023-01-04T15:18:16;9.90;1.00
51619;DHT22;38518;53.164;5.430;2023-01-04T15:20:42;9.80;1.00
51619;DHT22;38518;53.164;5.430;2023-01-04T15:23:08;9.90;1.00
51619;DHT22;38518;53.164;5.430;2023-01-04T15:25:34;9.80;1.00
51619;DHT22;38518;53.164;5.430;2023-01-04T15:28:00;9.80;99.90
51619;DHT22;38518;53.164;5.430;2023-01-04T15:30:28;9.80;1.00
51619;DHT22;38518;53.164;5.430;2023-01-04T15:32:54;9.80;1.00
51619;DHT22;38518;53.164;5.430;2023-01-04T15:35:20;9.80;99.90
51619;DHT22;38518;53.164;5.430;2023-01-04T15:37:46;9.70;1.00
51619;DHT22;38518;53.164;5.430;2023-01-04T15:40:14;9.70;1.00
51619;DHT22;38518;53.164;5.430;2023-01-04T15:42:40;9.70;1.00
51619;DHT22;38518;53.164;5.430;2023-01-04T15:45:36;9.70;1.00
51619;DHT22;38518;53.164;5.430;2023-01-04T15:48:07;9.70;1.00
51619;DHT22;38518;53.164;5.430;2023-01-04T15:50:35;9.70;1.00
51619;DHT22;38518;53.164;5.430;2023-01-04T15:53:01;9.70;1.00
51619;DHT22;38518;53.164;5.430;2023-01-04T15:55:36;9.70;1.00
51619;DHT22;38518;53.164;5.430;2023-01-04T15:58:03;9.70;99.90
51619;DHT22;38518;53.164;5.430;2023-01-04T16:00:29;9.70;99.90
51619;DHT22;38518;53.164;5.430;2023-01-04T16:02:55;9.70;1.00
51619;DHT22;38518;53.164;5.430;2023-01-04T16:05:21;9.70;1.00
51619;DHT22;38518;53.164;5.430;2023-01-04T16:07:47;9.70;99.90
51619;DHT22;38518;53.164;5.430;2023-01-04T16:10:13;9.70;1.00
51619;DHT22;38518;53.164;5.430;2023-01-04T16:12:39;9.70;99.90
51619;DHT22;38518;53.164;5.430;2023-01-04T16:15:14;9.80;1.00
51619;DHT22;38518;53.164;5.430;2023-01-04T16:17:41;9.70;1.00
51619;DHT22;38518;53.164;5.430;2023-01-04T16:20:08;9.70;1.00
51619;DHT22;38518;53.164;5.430;2023-01-04T16:22:34;9.70;1.00
51619;DHT22;38518;53.164;5.430;2023-01-04T16:25:00;9.70;99.90
51619;DHT22;38518;53.164;5.430;2023-01-04T16:27:25;9.70;99.90
51619;DHT22;38518;53.164;5.430;2023-01-04T16:29:51;9.70;99.90
51619;DHT22;38518;53.164;5.430;2023-01-04T16:32:17;11.00;99.90
51619;DHT22;38518;53.164;5.430;2023-01-04T16:34:43;9.70;99.90
51619;DHT22;38518;53.164;5.430;2023-01-04T16:37:09;9.70;99.90
51619;DHT22;38518;53.164;5.430;2023-01-04T16:39:35;9.70;99.90
51619;DHT22;38518;53.164;5.430;2023-01-04T16:42:01;9.80;99.90
51619;DHT22;38518;53.164;5.430;2023-01-04T16:44:27;9.70;99.90
51619;DHT22;38518;53.164;5.430;2023-01-04T16:46:52;9.70;99.90
51619;DHT22;38518;53.164;5.430;2023-01-04T16:49:18;9.70;99.90
51619;DHT22;38518;53.164;5.430;2023-01-04T16:51:45;9.80;99.90
51619;DHT22;38518;53.164;5.430;2023-01-04T16:54:13;9.80;99.90
51619;DHT22;38518;53.164;5.430;2023-01-04T16:56:40;9.80;99.90
51619;DHT22;38518;53.164;5.430;2023-01-04T16:59:10;9.80;99.90
51619;DHT22;38518;53.164;5.430;2023-01-04T17:01:37;9.80;99.90
51619;DHT22;38518;53.164;5.430;2023-01-04T17:04:06;9.70;99.90
51619;DHT22;38518;53.164;5.430;2023-01-04T17:06:36;9.70;99.90
51619;DHT22;38518;53.164;5.430;2023-01-04T17:09:03;9.60;99.90
51619;DHT22;38518;53.164;5.430;2023-01-04T17:11:31;9.60;99.90
51619;DHT22;38518;53.164;5.430;2023-01-04T17:13:57;9.50;99.90
51619;DHT22;38518;53.164;5.430;2023-01-04T17:16:24;9.50;1.00
51619;DHT22;38518;53.164;5.430;2023-01-04T17:18:51;9.50;99.90
51619;DHT22;38518;53.164;5.430;2023-01-04T17:21:23;9.50;1.00
51619;DHT22;38518;53.164;5.430;2023-01-04T17:23:51;9.40;1.00
51619;DHT22;38518;53.164;5.430;2023-01-04T17:26:26;9.40;1.00
51619;DHT22;38518;53.164;5.430;2023-01-04T17:28:56;9.50;1.00
51619;DHT22;38518;53.164;5.430;2023-01-04T17:31:28;9.50;1.00
51619;DHT22;38518;53.164;5.430;2023-01-04T17:33:55;9.50;1.00
51619;DHT22;38518;53.164;5.430;2023-01-04T17:36:21;9.40;1.00
51619;DHT22;38518;53.164;5.430;2023-01-04T17:38:48;9.40;1.00
51619;DHT22;38518;53.164;5.430;2023-01-04T17:41:15;9.40;1.00
51619;DHT22;38518;53.164;5.430;2023-01-04T17:43:45;9.40;1.00
51619;DHT22;38518;53.164;5.430;2023-01-04T17:46:14;9.30;1.00
51619;DHT22;38518;53.164;5.430;2023-01-04T17:48:40;9.30;1.00
51619;DHT22;38518;53.164;5.430;2023-01-04T17:51:08;9.30;1.00
51619;DHT22;38518;53.164;5.430;2023-01-04T17:53:34;9.30;1.00
51619;DHT22;38518;53.164;5.430;2023-01-04T17:56:09;9.30;1.00
51619;DHT22;38518;53.164;5.430;2023-01-04T17:58:35;9.30;1.00
51619;DHT22;38518;53.164;5.430;2023-01-04T18:01:21;9.30;1.00
51619;DHT22;38518;53.164;5.430;2023-01-04T18:03:49;9.30;1.00
51619;DHT22;38518;53.164;5.430;2023-01-04T18:06:18;9.10;1.00
51619;DHT22;38518;53.164;5.430;2023-01-04T18:08:44;9.20;1.00